Time;durP1;ratioP1;P1;durP2;ratioP2;P2;SDS_P1;SDS_P2;PMS_P1;PMS_P2;Temp;Humidity;BMP_temperature;BMP_pressure;BME280_temperature;BME280_humidity;BME280_pressure;Samples;Min_cycle;Max_cycle;Signal;HPM_P1;HPM_P2
2023/06/15 00:07:20;;;;;;;3.85;2.70;;;;;;;18.34;41.82;100758.00;20891469;28;20298;-77
2023/06/15 00:17:23;;;;;;;6.90;3.00;;;;;;;17.83;43.10;100772.19;20893745;28;20246;-78
2023/06/15 00:27:25;;;;;;;5.20;2.53;;;;;;;18.07;42.91;100768.34;20895813;28;20615;-77
2023/06/15 00:37:27;;;;;;;4.13;2.75;;;;;;;17.85;43.06;100784.03;20931309;28;20555;-77
2023/06/15 00:47:30;;;;;;;3.45;2.63;;;;;;;17.40;44.84;100795.88;20941900;28;20239;-77
2023/06/15 00:57:34;;;;;;;4.78;2.55;;;;;;;17.71;44.16;100797.91;20919510;28;20242;-76
2023/06/15 01:07:40;;;;;;;6.57;3.05;;;;;;;17.53;44.60;100795.44;20931656;28;20261;-77
2023/06/15 01:17:44;;;;;;;2.67;2.28;;;;;;;17.04;45.88;100791.97;20930632;28;20192;-77
2023/06/15 01:27:49;;;;;;;4.68;2.55;;;;;;;17.32;45.17;100794.00;20905438;28;20261;-77
2023/06/15 01:37:51;;;;;;;3.55;2.70;;;;;;;16.96;46.20;100786.44;20887960;28;20892;-78
2023/06/15 01:47:54;;;;;;;2.67;2.40;;;;;;;17.20;45.42;100804.22;20918957;28;20265;-77
2023/06/15 01:57:56;;;;;;;3.08;2.88;;;;;;;17.21;45.69;100807.88;20933352;28;20242;-77
2023/06/15 02:07:59;;;;;;;5.55;3.05;;;;;;;16.98;46.42;100812.50;20981587;28;20273;-77
2023/06/15 02:18:04;;;;;;;9.30;3.30;;;;;;;16.78;47.32;100802.94;20938737;28;20501;-77
2023/06/15 02:28:07;;;;;;;4.38;3.03;;;;;;;16.60;47.12;100808.09;20941640;28;20693;-78
2023/06/15 02:38:11;;;;;;;5.38;3.42;;;;;;;16.75;46.46;100815.06;20911330;28;20269;-77
2023/06/15 02:48:14;;;;;;;3.28;2.97;;;;;;;16.28;48.29;100807.03;20923419;28;20237;-77
2023/06/15 02:58:20;;;;;;;4.43;3.72;;;;;;;16.68;47.05;100821.34;20955606;28;20658;-77
2023/06/15 03:08:31;;;;;;;6.28;3.47;;;;;;;16.80;47.01;100823.31;20930034;28;20220;-78
2023/06/15 03:18:46;;;;;;;5.25;3.38;;;;;;;16.75;47.27;100817.91;20898673;28;20226;-77
2023/06/15 03:28:49;;;;;;;5.97;2.92;;;;;;;16.29;48.17;100822.91;20932655;28;20211;-77
2023/06/15 03:38:51;;;;;;;3.60;3.30;;;;;;;16.60;47.33;100819.47;20915792;28;20220;-77
2023/06/15 03:48:54;;;;;;;4.15;3.15;;;;;;;15.95;49.10;100823.38;20930328;28;20277;-77
2023/06/15 03:58:57;;;;;;;4.65;3.17;;;;;;;16.35;47.67;100818.66;20900516;28;20597;-77
2023/06/15 04:09:00;;;;;;;5.35;3.08;;;;;;;16.42;47.06;100824.56;20957195;28;20632;-78
2023/06/15 04:19:04;;;;;;;4.88;2.95;;;;;;;16.51;47.94;100827.28;20945551;28;20187;-76
2023/06/15 04:29:06;;;;;;;11.40;3.67;;;;;;;16.64;46.78;100830.94;20944263;28;20220;-78
2023/06/15 04:39:09;;;;;;;3.92;3.28;;;;;;;16.15;48.09;100836.63;20933788;28;20207;-78
2023/06/15 04:49:12;;;;;;;9.02;3.75;;;;;;;17.20;45.05;100838.34;20901749;28;20223;-78
2023/06/15 04:59:14;;;;;;;3.58;2.60;;;;;;;17.07;45.65;100841.59;20957374;28;20195;-78
2023/06/15 05:09:19;;;;;;;4.18;3.13;;;;;;;17.22;45.50;100857.91;20934120;28;20224;-78
2023/06/15 05:19:24;;;;;;;6.57;3.63;;;;;;;17.71;44.67;100843.44;20956043;28;20192;-77
2023/06/15 05:29:26;;;;;;;12.27;5.00;;;;;;;17.65;45.87;100851.44;20973868;28;20207;-79
2023/06/15 05:39:29;;;;;;;7.00;4.65;;;;;;;18.22;43.99;100856.63;20942452;28;20620;-77
2023/06/15 05:49:33;;;;;;;7.03;5.05;;;;;;;18.33;44.70;100856.88;20977930;28;20223;-78
2023/06/15 05:59:36;;;;;;;7.53;4.50;;;;;;;17.83;45.19;100861.28;20939848;28;20238;-79
2023/06/15 06:09:38;;;;;;;10.05;5.45;;;;;;;18.36;44.43;100866.72;20941923;28;20231;-79
2023/06/15 06:19:42;;;;;;;8.65;5.03;;;;;;;18.75;43.75;100856.28;20931796;28;20195;-77
2023/06/15 06:29:44;;;;;;;6.82;4.80;;;;;;;19.17;41.96;100857.25;20943742;28;20619;-78
2023/06/15 06:39:47;;;;;;;9.55;4.90;;;;;;;19.53;41.45;100863.69;20925645;28;20632;-78
2023/06/15 06:49:49;;;;;;;13.00;5.78;;;;;;;19.47;40.75;100863.19;20934053;28;20223;-77
2023/06/15 06:59:51;;;;;;;18.33;5.85;;;;;;;19.26;41.13;100866.41;20914530;28;20192;-78
2023/06/15 07:09:54;;;;;;;30.15;7.20;;;;;;;20.46;39.25;100858.47;20936856;28;20231;-78
2023/06/15 07:19:56;;;;;;;16.13;5.95;;;;;;;20.59;36.54;100862.81;20949848;28;20214;-78
2023/06/15 07:29:59;;;;;;;23.23;6.28;;;;;;;21.09;37.10;100860.66;20918252;28;20718;-78
2023/06/15 07:40:01;;;;;;;14.52;6.32;;;;;;;21.31;34.84;100862.59;20963151;28;20219;-78
2023/06/15 07:50:04;;;;;;;9.20;4.82;;;;;;;21.55;33.08;100863.31;20941948;28;20214;-78
2023/06/15 08:00:07;;;;;;;14.18;3.97;;;;;;;22.33;31.60;100855.53;20914724;28;20199;-78
2023/06/15 08:10:10;;;;;;;11.98;4.03;;;;;;;22.32;31.55;100853.88;20929945;28;20273;-78
2023/06/15 08:20:13;;;;;;;8.45;3.67;;;;;;;22.55;29.86;100843.03;20938799;28;20242;-78
2023/06/15 08:30:15;;;;;;;5.40;3.40;;;;;;;22.67;29.74;100836.13;20921295;28;20226;-78
2023/06/15 08:40:19;;;;;;;10.32;3.35;;;;;;;23.26;29.73;100831.94;20932890;28;20211;-78
2023/06/15 08:50:22;;;;;;;8.95;2.83;;;;;;;22.86;29.71;100838.72;20946605;28;20220;-76
2023/06/15 09:00:25;;;;;;;7.60;3.55;;;;;;;22.92;28.22;100836.28;21020241;28;20244;-77
2023/06/15 09:10:27;;;;;;;5.13;2.97;;;;;;;23.02;27.91;100830.63;20956781;28;20228;-79
2023/06/15 09:20:31;;;;;;;6.35;3.17;;;;;;;23.58;28.04;100825.53;20947076;28;20457;-80
2023/06/15 09:30:38;;;;;;;11.35;5.35;;;;;;;23.04;28.66;100821.59;20942327;28;20212;-79
2023/06/15 09:40:40;;;;;;;10.23;5.07;;;;;;;23.68;27.94;100813.22;20941621;28;20192;-78
2023/06/15 09:50:43;;;;;;;5.97;2.88;;;;;;;22.90;28.97;100810.00;20927416;28;20286;-78
2023/06/15 10:00:47;;;;;;;5.30;3.10;;;;;;;23.48;28.23;100810.69;20912720;28;20250;-78
2023/06/15 10:10:51;;;;;;;5.90;2.97;;;;;;;24.89;26.44;100805.41;20907006;28;20357;-77
2023/06/15 10:20:54;;;;;;;2.38;2.17;;;;;;;24.43;26.03;100788.19;20943469;28;20191;-76
2023/06/15 10:31:22;;;;;;;10.32;2.95;;;;;;;23.62;24.04;100803.38;20910721;28;20220;-77
2023/06/15 10:41:26;;;;;;;4.03;2.08;;;;;;;24.85;23.02;100796.75;20902396;28;20192;-79
2023/06/15 10:51:29;;;;;;;3.55;1.90;;;;;;;24.63;21.49;100792.28;20930179;28;20220;-80
2023/06/15 11:01:32;;;;;;;6.28;2.10;;;;;;;24.68;23.06;100794.75;20929026;28;20188;-79
2023/06/15 11:11:36;;;;;;;2.70;2.17;;;;;;;25.70;21.55;100786.09;20907177;28;20706;-80
2023/06/15 11:21:47;;;;;;;3.03;1.55;;;;;;;24.56;20.49;100792.28;20918249;28;20184;-77
2023/06/15 11:31:50;;;;;;;2.67;1.80;;;;;;;25.65;20.31;100779.53;20942323;28;20219;-79
2023/06/15 11:41:56;;;;;;;3.03;1.65;;;;;;;25.25;18.82;100777.28;20931567;28;20184;-80
2023/06/15 11:51:58;;;;;;;2.45;1.67;;;;;;;25.34;20.02;100769.00;20921204;28;20269;-77
2023/06/15 12:02:03;;;;;;;1.98;1.70;;;;;;;25.47;19.57;100763.56;20918130;28;20196;-79
2023/06/15 12:12:08;;;;;;;1.55;1.45;;;;;;;27.11;18.43;100751.31;20930202;28;20293;-79
2023/06/15 12:22:10;;;;;;;2.35;1.73;;;;;;;26.35;19.68;100742.72;20948405;28;20527;-79
2023/06/15 12:32:22;;;;;;;2.90;1.98;;;;;;;26.50;18.39;100739.66;20956407;28;20227;-79
2023/06/15 12:42:25;;;;;;;3.60;2.00;;;;;;;26.95;19.18;100729.66;20994266;28;20256;-79
2023/06/15 12:52:27;;;;;;;6.05;2.08;;;;;;;27.00;19.33;100714.75;20944615;28;20219;-79
2023/06/15 13:02:32;;;;;;;1.90;1.80;;;;;;;26.88;18.23;100712.44;20929865;28;20188;-79
2023/06/15 13:12:37;;;;;;;2.63;1.85;;;;;;;26.90;18.27;100698.34;20969388;28;20250;-80
2023/06/15 13:22:40;;;;;;;2.88;1.80;;;;;;;27.36;19.26;100696.91;20924329;28;20188;-80
2023/06/15 13:32:45;;;;;;;5.82;2.00;;;;;;;27.38;18.71;100695.22;20936153;28;20652;-77
2023/06/15 13:42:48;;;;;;;5.45;2.00;;;;;;;25.85;21.27;100706.91;20934815;28;20192;-77
2023/06/15 13:52:50;;;;;;;3.15;2.22;;;;;;;26.87;18.88;100690.59;20939403;28;20216;-80
2023/06/15 14:02:53;;;;;;;3.42;1.85;;;;;;;27.53;18.40;100687.16;20957998;28;20738;-78
2023/06/15 14:12:56;;;;;;;4.43;1.80;;;;;;;26.68;19.18;100674.69;20923866;28;20220;-80
2023/06/15 14:22:58;;;;;;;2.95;2.13;;;;;;;26.10;18.57;100678.66;20936114;28;20646;-78
2023/06/15 14:33:00;;;;;;;2.63;2.20;;;;;;;27.37;18.36;100658.91;20969977;28;20219;-78
2023/06/15 14:43:03;;;;;;;3.75;1.88;;;;;;;26.22;18.92;100671.53;20963887;28;20188;-78
2023/06/15 14:53:06;;;;;;;2.83;2.08;;;;;;;26.63;19.93;100663.63;20971365;28;20273;-79
2023/06/15 15:03:08;;;;;;;2.63;2.40;;;;;;;26.67;20.33;100661.50;20924498;28;20200;-80
2023/06/15 15:13:11;;;;;;;5.70;2.33;;;;;;;27.31;19.22;100648.25;20906415;28;20276;-77
2023/06/15 15:23:13;;;;;;;5.13;2.60;;;;;;;27.30;20.13;100643.72;20917857;28;20199;-77
2023/06/15 15:33:15;;;;;;;4.15;2.90;;;;;;;26.79;19.63;100648.59;20913368;28;20567;-77
2023/06/15 15:43:18;;;;;;;5.10;3.25;;;;;;;25.12;22.04;100655.13;20902620;28;20249;-77
2023/06/15 15:53:20;;;;;;;4.95;2.40;;;;;;;25.95;20.68;100637.63;20932199;28;20292;-75
2023/06/15 16:03:23;;;;;;;4.75;2.47;;;;;;;26.23;19.58;100642.25;20895827;28;20682;-77
2023/06/15 16:13:25;;;;;;;3.72;2.40;;;;;;;26.13;19.99;100633.69;20914119;28;20325;-76
2023/06/15 16:23:29;;;;;;;4.47;2.22;;;;;;;26.38;20.26;100621.88;20920428;28;20203;-76
2023/06/15 16:33:31;;;;;;;5.05;2.17;;;;;;;25.56;20.39;100632.19;20935140;28;20490;-77
2023/06/15 16:43:34;;;;;;;4.30;2.45;;;;;;;25.06;22.47;100636.69;20892285;28;20208;-77
2023/06/15 16:53:37;;;;;;;3.78;2.50;;;;;;;25.49;20.39;100617.00;20889339;28;20222;-76
2023/06/15 17:03:40;;;;;;;3.65;1.88;;;;;;;25.82;19.20;100616.31;20924906;28;20591;-76
2023/06/15 17:13:42;;;;;;;3.78;2.13;;;;;;;26.02;20.95;100613.63;20894114;28;20256;-78
2023/06/15 17:23:45;;;;;;;7.90;4.85;;;;;;;25.89;19.88;100616.25;20921740;28;20212;-79
2023/06/15 17:33:47;;;;;;;3.20;2.00;;;;;;;25.56;19.01;100637.97;20943154;28;20352;-84
2023/06/15 17:43:49;;;;;;;4.38;1.80;;;;;;;25.84;18.93;100634.03;20905976;28;20189;-79
2023/06/15 17:53:52;;;;;;;3.33;1.95;;;;;;;25.91;19.78;100641.78;20903120;28;20215;-74
2023/06/15 18:03:54;;;;;;;4.13;1.70;;;;;;;25.58;19.50;100644.13;20921062;28;20192;-76
2023/06/15 18:13:57;;;;;;;4.18;1.83;;;;;;;25.46;19.91;100650.38;20896491;28;20276;-80
2023/06/15 18:23:59;;;;;;;3.85;2.25;;;;;;;25.17;20.47;100654.69;20924566;28;20188;-79
2023/06/15 18:34:02;;;;;;;5.60;2.00;;;;;;;24.71;20.88;100657.84;20918572;28;20277;-78
2023/06/15 18:44:05;;;;;;;5.78;2.55;;;;;;;24.38;20.71;100659.19;20902179;28;21449;-79
2023/06/15 18:54:07;;;;;;;3.25;1.85;;;;;;;24.02;21.09;100665.00;20894497;28;20296;-81
2023/06/15 19:04:10;;;;;;;4.65;2.47;;;;;;;24.36;21.20;100661.66;20881150;28;20223;-77
2023/06/15 19:14:12;;;;;;;2.55;2.22;;;;;;;23.36;22.34;100673.22;20916739;28;20316;-79
2023/06/15 19:24:14;;;;;;;4.25;2.45;;;;;;;23.32;22.81;100672.38;20886927;28;20269;-78
2023/06/15 19:34:20;;;;;;;3.20;2.47;;;;;;;23.15;23.15;100678.91;20927997;28;20305;-78
2023/06/15 19:44:23;;;;;;;6.45;2.80;;;;;;;22.43;24.55;100682.75;20890200;28;21029;-78
2023/06/15 19:54:29;;;;;;;5.75;2.85;;;;;;;21.82;25.61;100701.59;20907496;28;20277;-79
2023/06/15 20:04:31;;;;;;;4.13;2.63;;;;;;;22.34;26.29;100697.41;20905543;28;20191;-76
2023/06/15 20:14:34;;;;;;;4.70;3.00;;;;;;;22.11;26.49;100708.31;20914555;28;20227;-79
2023/06/15 20:24:37;;;;;;;6.80;3.80;;;;;;;22.14;26.52;100722.69;20884648;28;20196;-77
2023/06/15 20:34:40;;;;;;;4.75;3.03;;;;;;;22.02;26.96;100743.06;20907253;28;20265;-77
2023/06/15 20:44:42;;;;;;;3.58;2.95;;;;;;;21.79;27.61;100742.47;20912538;28;20196;-76
2023/06/15 20:54:44;;;;;;;3.13;2.55;;;;;;;21.41;28.34;100741.69;20903834;28;20239;-76
2023/06/15 21:04:49;;;;;;;4.22;3.20;;;;;;;21.34;29.21;100749.34;20922041;28;20273;-77
2023/06/15 21:14:52;;;;;;;6.47;3.00;;;;;;;20.73;30.33;100757.19;20907677;28;20255;-77
2023/06/15 21:24:54;;;;;;;6.40;3.10;;;;;;;20.93;30.72;100754.97;20942266;28;20245;-77
2023/06/15 21:34:56;;;;;;;4.88;2.88;;;;;;;20.61;31.54;100757.44;20896323;28;20679;-77
2023/06/15 21:44:59;;;;;;;5.72;2.78;;;;;;;20.81;31.73;100772.41;20909079;28;20216;-78
2023/06/15 21:55:02;;;;;;;4.70;3.13;;;;;;;20.62;31.32;100761.97;20896727;28;20215;-78
2023/06/15 22:05:04;;;;;;;6.80;3.22;;;;;;;20.63;32.36;100763.59;20902045;28;20222;-77
2023/06/15 22:15:08;;;;;;;7.78;4.03;;;;;;;20.57;31.91;100756.56;20898042;28;20255;-77
2023/06/15 22:25:10;;;;;;;6.18;3.15;;;;;;;20.79;31.27;100754.81;20928092;28;20222;-77
2023/06/15 22:35:12;;;;;;;7.53;3.03;;;;;;;20.81;31.65;100763.00;20910814;28;20247;-77
2023/06/15 22:45:15;;;;;;;5.05;3.17;;;;;;;20.57;31.91;100761.47;20896716;28;20196;-78
2023/06/15 22:55:17;;;;;;;4.05;2.40;;;;;;;20.23;32.67;100766.25;20898715;28;20269;-78
2023/06/15 23:05:22;;;;;;;4.22;2.80;;;;;;;21.00;31.28;100775.13;20880349;28;20395;-79
2023/06/15 23:15:32;;;;;;;3.70;2.50;;;;;;;20.85;32.61;100773.28;20895581;28;20615;-78
2023/06/15 23:25:34;;;;;;;5.40;2.92;;;;;;;20.20;34.01;100778.44;20906636;28;20215;-78
2023/06/15 23:35:36;;;;;;;5.78;2.60;;;;;;;19.93;33.68;100763.31;20911593;28;20244;-77
2023/06/15 23:45:38;;;;;;;7.32;3.08;;;;;;;19.83;32.93;100763.94;20894517;28;20196;-78
2023/06/15 23:55:41;;;;;;;3.67;2.38;;;;;;;19.30;33.05;100761.75;20914195;28;20619;-78
